Lorraine — A8IZ3 — position and weather

sailwx.info

Track history (hours):
 
Tides and Currents Weather Stations Pressure Air Temp Water Temp Dewpoint Dewpoint Depression Visibility Wind Speed Wind Dir Waves Ship Positions

Lorraine

Last reported at 2016-Sep-28 01:32 UTC. Time now 2016-Sep-28 01:51 UTC.
Position N 34°52' E 119°46'.

Length 221 m; draft 9.6 m.

Type: Ship. MMSI: 636012905.

Date/timePositionNaut miles runAvg speedWind from/ knotsBaromVisibWave heightAir tempDewpointWater temp
2016-Sep-28 01:32N 34°52' E 119°46'0 0.0
2016-Sep-27 23:33N 34°52' E 119°46'249 5.4
2016-Sep-26 01:31N 38°33' E 122°10'1818.7
2016-Sep-26 00:33N 38°49' E 121°59'7 0.7
2016-Sep-25 14:08N 38°56' E 121°57'1912.3
2016-Sep-25 12:34N 38°37' E 121°49'1414.1
2016-Sep-25 11:33N 38°28' E 121°35'1715.8
2016-Sep-25 10:28N 38°27' E 121°13'1516.2
2016-Sep-25 09:32N 38°31' E 120°55'14516.1
2016-Sep-25 00:33N 38°58' E 117°52'4 1.9
2016-Sep-24 22:30N 38°59' E 117°47'0 0.0
2016-Sep-24 21:24N 38°59' E 117°47'0 0.0
2016-Sep-24 19:23N 38°59' E 117°47'0 0.0
2016-Sep-24 18:28N 38°59' E 117°47'0 0.0
2016-Sep-24 17:04N 38°59' E 117°47'0 0.0
2016-Sep-24 16:21N 38°59' E 117°47'0 0.0
2016-Sep-24 14:33N 38°59' E 117°47'0 0.0
2016-Sep-24 12:32N 38°59' E 117°47'0 0.0
2016-Sep-24 10:25N 38°59' E 117°47'0 0.0
2016-Sep-24 09:30N 38°59' E 117°47'139 8.7
2016-Sep-23 17:33N 38°38' E 120°43'1110.6
2016-Sep-23 16:32N 38°37' E 120°56'1211.2
2016-Sep-23 15:28N 38°31' E 121°10'6510.8
2016-Sep-23 09:26N 37°57' E 122°21'48 9.8
2016-Sep-23 04:33N 37°23' E 123°03'1312.1
2016-Sep-23 03:31N 37°11' E 123°05'1212.2
2016-Sep-23 02:33N 36°59' E 123°07'  
2016-Sep-20 08:18N 24°27' E 119°21'31710.9
2016-Sep-19 03:10N 22°18' E 114°06'3 1.0
2016-Sep-19 00:25N 22°21' E 114°07'0 0.0
2016-Sep-18 19:23N 22°21' E 114°07'0 0.0
2016-Sep-18 15:33N 22°21' E 114°07'  
Track history (hours):
 
Tides and Currents Weather Stations Pressure Air Temp Water Temp Dewpoint Dewpoint Depression Visibility Wind Speed Wind Dir Waves Ship Positions

Lorraine

Last reported at 2016-Sep-28 01:32 UTC. Time now 2016-Sep-28 01:51 UTC.
Position N 34°52' E 119°46'.

Length 221 m; draft 9.6 m.

Type: Ship. MMSI: 636012905.

Date/timePositionNaut miles runAvg speedWind from/ knotsBaromVisibWave heightAir tempDewpointWater temp
2016-Sep-28 01:32N 34°52' E 119°46'0 0.0
2016-Sep-27 23:33N 34°52' E 119°46'249 5.4
2016-Sep-26 01:31N 38°33' E 122°10'1818.7
2016-Sep-26 00:33N 38°49' E 121°59'7 0.7
2016-Sep-25 14:08N 38°56' E 121°57'1912.3
2016-Sep-25 12:34N 38°37' E 121°49'1414.1
2016-Sep-25 11:33N 38°28' E 121°35'1715.8
2016-Sep-25 10:28N 38°27' E 121°13'1516.2
2016-Sep-25 09:32N 38°31' E 120°55'14516.1
2016-Sep-25 00:33N 38°58' E 117°52'4 1.9
2016-Sep-24 22:30N 38°59' E 117°47'0 0.0
2016-Sep-24 21:24N 38°59' E 117°47'0 0.0
2016-Sep-24 19:23N 38°59' E 117°47'0 0.0
2016-Sep-24 18:28N 38°59' E 117°47'0 0.0
2016-Sep-24 17:04N 38°59' E 117°47'0 0.0
2016-Sep-24 16:21N 38°59' E 117°47'0 0.0
2016-Sep-24 14:33N 38°59' E 117°47'0 0.0
2016-Sep-24 12:32N 38°59' E 117°47'0 0.0
2016-Sep-24 10:25N 38°59' E 117°47'0 0.0
2016-Sep-24 09:30N 38°59' E 117°47'139 8.7
2016-Sep-23 17:33N 38°38' E 120°43'1110.6
2016-Sep-23 16:32N 38°37' E 120°56'1211.2
2016-Sep-23 15:28N 38°31' E 121°10'6510.8
2016-Sep-23 09:26N 37°57' E 122°21'48 9.8
2016-Sep-23 04:33N 37°23' E 123°03'1312.1
2016-Sep-23 03:31N 37°11' E 123°05'1212.2
2016-Sep-23 02:33N 36°59' E 123°07'  
2016-Sep-20 08:18N 24°27' E 119°21'31710.9
2016-Sep-19 03:10N 22°18' E 114°06'3 1.0
2016-Sep-19 00:25N 22°21' E 114°07'0 0.0
2016-Sep-18 19:23N 22°21' E 114°07'0 0.0
2016-Sep-18 15:33N 22°21' E 114°07'  

Dump ship's entire track history